Time;durP1;ratioP1;P1;durP2;ratioP2;P2;SDS_P1;SDS_P2;PMS_P1;PMS_P2;Temp;Humidity;BMP_temperature;BMP_pressure;BME280_temperature;BME280_humidity;BME280_pressure;Samples;Min_cycle;Max_cycle;Signal;HPM_P1;HPM_P2
2023/05/18 00:01:14;;;;;;;2.73;1.93;;;13.00;99.90;;;;;;4163108;28;20083;-78
2023/05/18 00:03:16;;;;;;;3.70;2.10;;;13.00;99.90;;;;;;4163043;28;20371;-65
2023/05/18 00:05:17;;;;;;;3.00;2.07;;;13.00;99.90;;;;;;4163622;28;20033;-74
2023/05/18 00:07:18;;;;;;;3.40;1.80;;;13.00;99.90;;;;;;4128381;28;20039;-60
2023/05/18 00:09:19;;;;;;;5.10;1.97;;;13.00;99.90;;;;;;4162548;28;20034;-61
2023/05/18 00:11:21;;;;;;;4.70;2.40;;;13.00;99.90;;;;;;4162271;28;20025;-71
2023/05/18 00:13:22;;;;;;;3.03;2.20;;;12.90;99.90;;;;;;4163114;28;20029;-62
2023/05/18 00:15:23;;;;;;;2.53;1.87;;;12.90;99.90;;;;;;4163030;28;20526;-77
2023/05/18 00:17:24;;;;;;;3.03;2.30;;;12.90;99.90;;;;;;4162511;28;20033;-62
2023/05/18 00:19:27;;;;;;;4.93;2.40;;;12.90;99.90;;;;;;4163178;28;20080;-61
2023/05/18 00:21:32;;;;;;;4.87;2.80;;;12.80;99.90;;;;;;4162355;28;20457;-75
2023/05/18 00:23:34;;;;;;;3.00;2.10;;;12.80;99.90;;;;;;4146671;28;20543;-63
2023/05/18 00:25:35;;;;;;;3.60;2.57;;;12.80;99.90;;;;;;4159684;28;20739;-78
2023/05/18 00:27:36;;;;;;;4.70;2.20;;;12.70;99.90;;;;;;4162915;28;20068;-62
2023/05/18 00:29:37;;;;;;;3.17;2.87;;;12.70;99.90;;;;;;4161429;28;20150;-62
2023/05/18 00:31:39;;;;;;;2.20;2.00;;;12.70;99.90;;;;;;4163134;28;20075;-61
2023/05/18 00:33:40;;;;;;;3.80;3.07;;;12.70;99.90;;;;;;4144524;28;20600;-62
2023/05/18 00:35:41;;;;;;;4.00;2.20;;;12.70;99.90;;;;;;4163281;28;20041;-80
2023/05/18 00:37:42;;;;;;;3.10;2.27;;;12.70;99.90;;;;;;4162086;28;20086;-76
2023/05/18 00:39:44;;;;;;;5.80;2.83;;;12.70;99.90;;;;;;4162398;28;20049;-79
2023/05/18 00:41:45;;;;;;;5.50;2.70;;;12.70;99.90;;;;;;4161538;28;20080;-72
2023/05/18 00:43:46;;;;;;;2.73;2.50;;;12.70;99.90;;;;;;4162715;28;20071;-63
2023/05/18 00:45:47;;;;;;;3.23;2.33;;;12.70;99.90;;;;;;4162226;28;20547;-61
2023/05/18 00:47:48;;;;;;;3.53;2.30;;;12.70;99.90;;;;;;4162481;28;20087;-63
2023/05/18 00:49:50;;;;;;;4.60;2.50;;;12.70;99.90;;;;;;4162511;28;20029;-63
2023/05/18 00:51:52;;;;;;;5.73;3.50;;;12.70;99.90;;;;;;4161529;28;20067;-61
2023/05/18 00:53:55;;;;;;;2.83;2.50;;;12.80;99.90;;;;;;4162933;28;20075;-73
2023/05/18 00:55:57;;;;;;;4.57;2.20;;;12.80;99.90;;;;;;4161301;28;20095;-60
2023/05/18 00:58:01;;;;;;;5.03;2.30;;;12.80;99.90;;;;;;4162997;28;20022;-76
2023/05/18 01:00:06;;;;;;;3.30;2.10;;;12.80;99.90;;;;;;4161756;28;20041;-61
2023/05/18 01:02:08;;;;;;;3.97;2.30;;;12.80;99.90;;;;;;4162931;28;20477;-78
2023/05/18 01:04:12;;;;;;;4.23;2.27;;;12.90;99.90;;;;;;4161563;28;20579;-63
2023/05/18 01:06:13;;;;;;;4.73;2.77;;;12.90;99.90;;;;;;4162649;28;20029;-62
2023/05/18 01:08:16;;;;;;;5.33;3.00;;;12.90;99.90;;;;;;4161754;28;20037;-79
2023/05/18 01:10:19;;;;;;;5.40;3.20;;;12.80;99.90;;;;;;4145165;28;20394;-62
2023/05/18 01:12:23;;;;;;;5.33;2.57;;;12.80;99.90;;;;;;4161621;28;20809;-78
2023/05/18 01:14:25;;;;;;;4.20;2.73;;;12.80;99.90;;;;;;4162614;28;20079;-80
2023/05/18 01:16:32;;;;;;;6.00;4.10;;;12.80;99.90;;;;;;4160822;28;20034;-61
2023/05/18 01:18:42;;;;;;;5.37;3.10;;;12.70;99.90;;;;;;4161938;28;20079;-80
2023/05/18 01:20:56;;;;;;;6.53;3.40;;;12.70;99.90;;;;;;4161461;28;20424;-69
2023/05/18 01:23:16;;;;;;;4.70;3.47;;;12.60;99.90;;;;;;4146430;28;20033;-61
2023/05/18 01:25:28;;;;;;;7.40;3.42;;;12.60;99.90;;;;;;4145116;28;20080;-80
2023/05/18 01:27:36;;;;;;;4.90;3.70;;;12.60;99.90;;;;;;4146269;28;20160;-80
2023/05/18 01:29:37;;;;;;;5.27;3.40;;;12.60;99.90;;;;;;4145045;28;20026;-71
2023/05/18 01:31:39;;;;;;;4.07;3.63;;;12.50;99.90;;;;;;4158060;28;20029;-75
2023/05/18 01:33:40;;;;;;;4.20;3.47;;;12.50;99.90;;;;;;4161220;28;20041;-79
2023/05/18 01:35:46;;;;;;;3.40;3.10;;;12.50;99.90;;;;;;4162209;28;20538;-81
2023/05/18 01:37:47;;;;;;;7.40;3.70;;;12.50;99.90;;;;;;4161523;28;20041;-80
2023/05/18 01:39:49;;;;;;;4.90;3.40;;;12.50;99.90;;;;;;4161744;28;20045;-61
2023/05/18 01:42:04;;;;;;;6.80;4.00;;;12.50;99.90;;;;;;4161822;28;20025;-61
2023/05/18 01:44:27;;;;;;;5.30;2.80;;;12.50;99.90;;;;;;4161230;28;20091;-68
2023/05/18 01:46:58;;;;;;;3.83;3.37;;;12.50;99.90;;;;;;4161006;28;20041;-78
2023/05/18 01:49:05;;;;;;;7.50;3.80;;;12.50;99.90;;;;;;4162147;28;20033;-76
2023/05/18 01:51:11;;;;;;;5.00;3.63;;;12.50;99.90;;;;;;4160529;28;20087;-61
2023/05/18 01:53:22;;;;;;;8.70;4.30;;;12.50;99.90;;;;;;4162064;28;20017;-61
2023/05/18 01:55:28;;;;;;;5.77;4.57;;;12.50;99.90;;;;;;4160174;28;20045;-75
2023/05/18 01:57:31;;;;;;;4.97;3.90;;;12.50;99.90;;;;;;4161109;28;20072;-63
2023/05/18 01:59:33;;;;;;;5.97;3.80;;;12.50;99.90;;;;;;4161069;28;20025;-80
2023/05/18 02:01:34;;;;;;;8.30;3.87;;;12.50;99.90;;;;;;4161555;28;20470;-61
2023/05/18 02:03:36;;;;;;;5.87;4.30;;;12.50;99.90;;;;;;4161574;28;20696;-65
2023/05/18 02:05:37;;;;;;;5.60;3.63;;;12.50;99.90;;;;;;4161292;28;20037;-79
2023/05/18 02:07:39;;;;;;;8.13;4.17;;;12.50;99.90;;;;;;4161603;28;20045;-62
2023/05/18 02:09:40;;;;;;;4.53;3.60;;;12.60;99.90;;;;;;4161115;28;20033;-62
2023/05/18 02:11:41;;;;;;;4.93;3.83;;;12.60;99.90;;;;;;4144320;28;20517;-78
2023/05/18 02:13:42;;;;;;;5.73;4.10;;;12.60;99.90;;;;;;4159798;28;20034;-81
2023/05/18 02:15:43;;;;;;;4.17;3.17;;;12.60;99.90;;;;;;4161749;28;20090;-81
2023/05/18 02:17:44;;;;;;;4.50;3.60;;;12.60;99.90;;;;;;4160798;28;20378;-72
2023/05/18 02:19:46;;;;;;;6.83;3.73;;;12.60;99.90;;;;;;4161146;28;20444;-77
2023/05/18 02:21:47;;;;;;;7.43;4.63;;;12.60;99.90;;;;;;4161005;28;20083;-75
2023/05/18 02:23:48;;;;;;;7.30;4.47;;;12.70;99.90;;;;;;4161021;28;20505;-71
2023/05/18 02:25:49;;;;;;;4.50;3.40;;;12.70;99.90;;;;;;4160492;28;20030;-79
2023/05/18 02:27:51;;;;;;;6.23;3.90;;;12.70;99.90;;;;;;4162409;28;20110;-76
2023/05/18 02:29:53;;;;;;;7.03;4.00;;;12.70;99.90;;;;;;4145005;28;20038;-73
2023/05/18 02:31:54;;;;;;;6.23;3.47;;;12.70;99.90;;;;;;4164761;28;20056;-69
2023/05/18 02:33:55;;;;;;;5.10;3.50;;;12.60;99.90;;;;;;4163672;28;20095;-74
2023/05/18 02:35:56;;;;;;;5.93;3.30;;;12.60;99.90;;;;;;4164372;28;20025;-61
2023/05/18 02:37:58;;;;;;;4.60;3.20;;;12.60;99.90;;;;;;4164571;28;20018;-75
2023/05/18 02:40:02;;;;;;;5.97;3.17;;;12.50;99.90;;;;;;4164126;28;20048;-80
2023/05/18 02:42:03;;;;;;;4.07;3.27;;;12.50;99.90;;;;;;4164165;28;20049;-64
2023/05/18 02:44:05;;;;;;;5.33;3.87;;;12.50;99.90;;;;;;4163132;28;20168;-71
2023/05/18 02:46:06;;;;;;;5.10;3.83;;;12.50;99.90;;;;;;4165299;28;20448;-73
2023/05/18 02:48:07;;;;;;;6.23;3.00;;;12.50;99.90;;;;;;4163285;28;20037;-70
2023/05/18 02:50:09;;;;;;;4.13;3.40;;;12.50;99.90;;;;;;4163290;28;20025;-76
2023/05/18 02:52:10;;;;;;;7.10;3.30;;;12.50;99.90;;;;;;4163222;28;20041;-60
2023/05/18 02:54:11;;;;;;;4.20;3.50;;;12.50;99.90;;;;;;4164155;28;20041;-72
2023/05/18 02:56:12;;;;;;;4.07;3.60;;;12.50;99.90;;;;;;4144768;28;20049;-73
2023/05/18 02:58:14;;;;;;;4.70;3.03;;;12.50;99.90;;;;;;4164410;28;20473;-70
2023/05/18 03:00:16;;;;;;;7.13;4.03;;;12.60;99.90;;;;;;4163676;28;20025;-61
2023/05/18 03:02:18;;;;;;;5.23;3.00;;;12.60;99.90;;;;;;4164394;28;20033;-69
2023/05/18 03:04:20;;;;;;;8.07;3.30;;;12.60;99.90;;;;;;4164303;28;20550;-77
2023/05/18 03:06:25;;;;;;;5.07;3.63;;;12.60;99.90;;;;;;4163548;28;20373;-77
2023/05/18 03:08:27;;;;;;;3.80;3.40;;;12.60;99.90;;;;;;4163393;28;20041;-69
2023/05/18 03:10:28;;;;;;;6.07;4.10;;;12.60;99.90;;;;;;4162915;28;20064;-75
2023/05/18 03:12:29;;;;;;;7.80;3.80;;;12.60;99.90;;;;;;4164220;28;20080;-75
2023/05/18 03:14:30;;;;;;;9.07;3.90;;;12.60;99.90;;;;;;4163409;28;20472;-78
2023/05/18 03:16:32;;;;;;;4.37;3.77;;;12.60;99.90;;;;;;4164127;28;20033;-78
2023/05/18 03:18:33;;;;;;;6.00;4.40;;;12.60;99.90;;;;;;4163182;28;20099;-68
2023/05/18 03:20:36;;;;;;;4.43;4.03;;;12.70;99.90;;;;;;4163612;28;20033;-78
2023/05/18 03:22:37;;;;;;;6.10;4.30;;;12.60;99.90;;;;;;4163194;28;20072;-78
2023/05/18 03:24:42;;;;;;;7.40;4.53;;;12.70;99.90;;;;;;4164337;28;20029;-78
2023/05/18 03:26:43;;;;;;;5.83;4.47;;;12.60;99.90;;;;;;4163044;28;20042;-75
2023/05/18 03:28:44;;;;;;;9.57;4.90;;;12.70;99.90;;;;;;4164292;28;20144;-75
2023/05/18 03:30:45;;;;;;;6.67;4.17;;;12.70;99.90;;;;;;4162825;28;20492;-80
2023/05/18 03:32:47;;;;;;;6.60;4.40;;;12.70;99.90;;;;;;4163957;28;20030;-76
2023/05/18 03:34:48;;;;;;;6.07;3.97;;;12.70;99.90;;;;;;4162889;28;20041;-65
2023/05/18 03:36:51;;;;;;;5.63;4.13;;;12.70;99.90;;;;;;4163496;28;20037;-75
2023/05/18 03:38:52;;;;;;;7.60;4.43;;;12.70;99.90;;;;;;4162584;28;20091;-76
2023/05/18 03:40:54;;;;;;;6.03;4.37;;;12.70;99.90;;;;;;4162539;28;20033;-75
2023/05/18 03:42:55;;;;;;;5.63;4.13;;;12.70;99.90;;;;;;4163435;28;20068;-70
2023/05/18 03:44:56;;;;;;;6.10;4.53;;;12.80;99.90;;;;;;4162799;28;20037;-79
2023/05/18 03:46:57;;;;;;;7.00;3.97;;;12.80;99.90;;;;;;4163600;28;20041;-77
2023/05/18 03:48:58;;;;;;;8.37;4.60;;;12.80;99.90;;;;;;4161947;28;20548;-77
2023/05/18 03:51:00;;;;;;;7.97;4.33;;;12.80;99.90;;;;;;4163121;28;20450;-80
2023/05/18 03:53:01;;;;;;;7.80;4.43;;;12.80;99.90;;;;;;4144250;28;20194;-79
2023/05/18 03:55:03;;;;;;;5.00;3.73;;;12.80;99.90;;;;;;4163640;28;20428;-75
2023/05/18 03:57:05;;;;;;;8.10;5.80;;;12.80;99.90;;;;;;4162178;28;20041;-77
2023/05/18 03:59:06;;;;;;;4.20;3.57;;;12.90;99.90;;;;;;4163086;28;20378;-80
2023/05/18 04:01:08;;;;;;;4.87;4.00;;;12.90;99.90;;;;;;4162006;28;20083;-76
2023/05/18 04:03:11;;;;;;;7.00;4.23;;;12.90;99.90;;;;;;4163992;28;20083;-62
2023/05/18 04:05:12;;;;;;;4.23;3.83;;;12.90;99.90;;;;;;4162433;28;20029;-76
2023/05/18 04:07:20;;;;;;;5.40;4.70;;;12.90;99.90;;;;;;4163210;28;20033;-76
2023/05/18 04:09:22;;;;;;;11.40;7.00;;;12.90;99.90;;;;;;4163147;28;20079;-74
2023/05/18 04:11:23;;;;;;;11.27;7.77;;;13.00;99.90;;;;;;4162618;28;20424;-62
2023/05/18 04:13:24;;;;;;;12.40;8.10;;;13.00;99.90;;;;;;4162350;28;20030;-74
2023/05/18 04:15:25;;;;;;;11.77;7.37;;;13.00;99.90;;;;;;4162195;28;20037;-61
2023/05/18 04:17:27;;;;;;;8.70;6.40;;;13.00;99.90;;;;;;4144836;28;20029;-69
2023/05/18 04:19:28;;;;;;;13.87;6.33;;;13.00;99.90;;;;;;4161859;28;20033;-67
2023/05/18 04:21:34;;;;;;;8.60;6.37;;;13.00;99.90;;;;;;4162886;28;20072;-77
2023/05/18 04:23:37;;;;;;;9.33;5.70;;;13.00;99.90;;;;;;4162044;28;20026;-61
2023/05/18 04:25:40;;;;;;;9.83;6.40;;;13.00;99.90;;;;;;4162796;28;20739;-66
2023/05/18 04:27:42;;;;;;;11.57;6.73;;;13.00;99.90;;;;;;4160187;28;20049;-72
2023/05/18 04:29:43;;;;;;;7.43;5.90;;;13.00;99.90;;;;;;4162533;28;21510;-67
2023/05/18 04:31:47;;;;;;;6.10;5.50;;;13.00;99.90;;;;;;4161431;28;20102;-74
2023/05/18 04:33:50;;;;;;;11.93;6.40;;;13.00;99.90;;;;;;4163010;28;20049;-79
2023/05/18 04:35:54;;;;;;;14.07;7.23;;;13.00;99.90;;;;;;4161751;28;20037;-74
2023/05/18 04:37:55;;;;;;;11.87;6.67;;;13.00;99.90;;;;;;4162899;28;20045;-62
2023/05/18 04:39:57;;;;;;;8.07;6.07;;;13.10;99.90;;;;;;4161646;28;20064;-63
2023/05/18 04:41:59;;;;;;;10.50;6.60;;;13.00;99.90;;;;;;4152221;28;20437;-61
2023/05/18 04:44:00;;;;;;;15.70;6.83;;;13.00;99.90;;;;;;4145613;28;20029;-79
2023/05/18 04:46:01;;;;;;;11.87;5.77;;;13.10;99.90;;;;;;4146849;28;20103;-78
2023/05/18 04:48:03;;;;;;;10.00;6.17;;;13.00;99.90;;;;;;4160153;28;20107;-73
2023/05/18 04:50:04;;;;;;;6.53;5.77;;;13.00;99.90;;;;;;4160971;28;20041;-72
2023/05/18 04:52:09;;;;;;;7.43;5.00;;;13.00;99.90;;;;;;4161186;28;20362;-75
2023/05/18 04:54:11;;;;;;;9.87;5.63;;;13.10;99.90;;;;;;4143001;28;20088;-83
2023/05/18 04:56:12;;;;;;;7.83;5.70;;;13.10;99.90;;;;;;4160263;28;20431;-62
2023/05/18 04:58:14;;;;;;;10.13;6.27;;;13.10;99.90;;;;;;4161157;28;20049;-75
2023/05/18 05:00:16;;;;;;;8.33;4.93;;;13.10;99.90;;;;;;4162205;28;20037;-65
2023/05/18 05:02:17;;;;;;;7.77;5.00;;;13.10;99.90;;;;;;4161150;28;20050;-71
2023/05/18 05:04:20;;;;;;;8.07;5.23;;;13.20;99.90;;;;;;4162899;28;20420;-61
2023/05/18 05:06:21;;;;;;;12.27;5.53;;;13.20;99.90;;;;;;4161255;28;20075;-80
2023/05/18 05:08:22;;;;;;;10.27;5.43;;;13.20;99.90;;;;;;4162328;28;20087;-79
2023/05/18 05:10:24;;;;;;;8.20;4.90;;;13.20;99.90;;;;;;4161113;28;20083;-70
2023/05/18 05:12:25;;;;;;;9.10;5.17;;;13.20;99.90;;;;;;4162539;28;20124;-69
2023/05/18 05:14:26;;;;;;;6.50;4.97;;;13.20;99.90;;;;;;4161055;28;20103;-79
2023/05/18 05:16:27;;;;;;;10.40;5.10;;;13.20;99.90;;;;;;4162381;28;20041;-62
2023/05/18 05:18:29;;;;;;;8.90;5.63;;;13.20;99.90;;;;;;4160513;28;20087;-67
2023/05/18 05:20:30;;;;;;;7.50;5.27;;;13.20;99.90;;;;;;4158538;28;20041;-65
2023/05/18 05:22:31;;;;;;;11.27;5.90;;;13.10;99.90;;;;;;4143005;28;20470;-74
2023/05/18 05:35:04;;;;;;;10.63;7.85;;;13.10;99.90;;;;;;4226217;27;20401;-75
2023/05/18 05:37:06;;;;;;;8.23;7.43;;;13.10;99.90;;;;;;4212883;28;20040;-73
2023/05/18 05:39:07;;;;;;;11.73;7.00;;;13.10;99.90;;;;;;4208634;28;20540;-60
2023/05/18 05:41:08;;;;;;;9.53;6.13;;;13.10;99.90;;;;;;4207582;28;20024;-76
2023/05/18 05:43:09;;;;;;;11.37;6.40;;;13.10;99.90;;;;;;4208903;28;20032;-69
2023/05/18 05:45:10;;;;;;;11.77;7.07;;;13.10;99.90;;;;;;4207982;28;20040;-58
2023/05/18 05:47:11;;;;;;;10.97;6.50;;;13.10;99.90;;;;;;4208732;28;20464;-60
2023/05/18 05:49:12;;;;;;;10.40;6.87;;;13.10;99.90;;;;;;4208426;28;20113;-59
2023/05/18 05:51:13;;;;;;;14.57;7.50;;;13.10;99.90;;;;;;4224391;28;20088;-59
2023/05/18 05:53:18;;;;;;;13.23;7.83;;;13.10;99.90;;;;;;4224084;28;20036;-60
2023/05/18 05:55:21;;;;;;;12.17;6.83;;;13.10;99.90;;;;;;4224948;28;20024;-56
2023/05/18 05:57:22;;;;;;;8.57;6.60;;;13.10;99.90;;;;;;4224028;28;20073;-59
2023/05/18 05:59:24;;;;;;;11.60;7.07;;;13.10;99.90;;;;;;4224627;28;20075;-59
2023/05/18 06:01:25;;;;;;;9.03;6.43;;;13.10;99.90;;;;;;4224428;28;20078;-55
2023/05/18 06:03:28;;;;;;;10.53;6.40;;;13.10;99.90;;;;;;4224305;28;20065;-61
2023/05/18 06:05:29;;;;;;;12.83;6.90;;;13.10;99.90;;;;;;4225333;28;20048;-58
2023/05/18 06:07:30;;;;;;;11.03;6.53;;;13.10;99.90;;;;;;4223625;28;20042;-62
2023/05/18 06:09:31;;;;;;;11.90;7.50;;;13.10;99.90;;;;;;4225129;28;20020;-68
2023/05/18 06:11:32;;;;;;;12.40;7.90;;;13.20;99.90;;;;;;4224033;28;20036;-58
2023/05/18 06:13:33;;;;;;;11.93;6.30;;;13.20;99.90;;;;;;4224963;28;20069;-57
2023/05/18 06:15:35;;;;;;;8.57;5.87;;;13.20;99.90;;;;;;4223979;28;20028;-76
2023/05/18 06:17:37;;;;;;;12.63;6.77;;;13.30;99.90;;;;;;4224970;28;20040;-57
2023/05/18 06:19:38;;;;;;;10.20;6.13;;;13.30;99.90;;;;;;4224056;28;20016;-61
2023/05/18 06:21:39;;;;;;;16.67;6.73;;;13.30;99.90;;;;;;4224824;28;20032;-68
2023/05/18 06:23:41;;;;;;;8.63;6.50;;;13.30;99.90;;;;;;4223408;28;20500;-58
2023/05/18 06:25:42;;;;;;;9.63;6.78;;;13.40;99.90;;;;;;4224854;28;20028;-57
2023/05/18 06:27:44;;;;;;;7.03;5.77;;;13.40;99.90;;;;;;4224380;28;20043;-58
2023/05/18 06:29:46;;;;;;;12.50;6.33;;;13.40;99.90;;;;;;4223753;28;20105;-60
2023/05/18 06:31:47;;;;;;;8.67;6.17;;;13.40;99.90;;;;;;4224108;28;20024;-60
2023/05/18 06:33:48;;;;;;;11.53;6.13;;;13.40;99.90;;;;;;4224093;28;20583;-60
2023/05/18 06:35:50;;;;;;;9.23;6.40;;;13.40;99.90;;;;;;4213901;28;20501;-66
2023/05/18 06:37:51;;;;;;;10.83;6.17;;;13.40;99.90;;;;;;4211718;28;20033;-60
2023/05/18 06:39:52;;;;;;;9.27;5.67;;;13.40;99.90;;;;;;4213373;28;20085;-61
2023/05/18 06:41:53;;;;;;;8.52;5.70;;;13.40;99.90;;;;;;4212021;28;20040;-56
2023/05/18 06:43:59;;;;;;;8.07;5.30;;;13.40;99.90;;;;;;4213228;28;20036;-66
2023/05/18 06:46:00;;;;;;;5.32;4.63;;;13.50;99.90;;;;;;4211286;28;20035;-58
2023/05/18 06:48:01;;;;;;;11.30;5.60;;;13.40;99.90;;;;;;4213047;28;20078;-60
2023/05/18 06:50:03;;;;;;;15.02;8.27;;;13.50;99.90;;;;;;4211502;28;20081;-59
2023/05/18 06:52:04;;;;;;;13.17;6.70;;;13.50;99.90;;;;;;4212689;28;20040;-58
2023/05/18 06:54:05;;;;;;;6.17;4.87;;;13.50;99.90;;;;;;4211864;28;20117;-73
2023/05/18 06:56:06;;;;;;;9.27;5.50;;;13.60;99.90;;;;;;4213024;28;20039;-67
2023/05/18 06:58:07;;;;;;;7.90;5.20;;;13.50;99.90;;;;;;4211166;28;20028;-75
2023/05/18 07:00:11;;;;;;;11.30;5.20;;;13.60;99.90;;;;;;4212676;28;20537;-77
2023/05/18 07:02:12;;;;;;;10.60;4.90;;;13.60;99.90;;;;;;4212375;28;20074;-74
2023/05/18 07:04:14;;;;;;;6.95;5.75;;;13.70;99.90;;;;;;4212238;28;20036;-78
2023/05/18 07:06:16;;;;;;;6.22;4.75;;;13.70;99.90;;;;;;4213360;28;20028;-78
2023/05/18 07:08:17;;;;;;;10.20;4.97;;;13.70;99.90;;;;;;4211715;28;20530;-82
2023/05/18 07:10:18;;;;;;;8.52;5.53;;;13.70;99.90;;;;;;4213295;28;20019;-69
2023/05/18 07:12:19;;;;;;;10.70;5.25;;;13.80;99.90;;;;;;4212108;28;20028;-65
2023/05/18 07:14:20;;;;;;;7.18;5.38;;;13.70;99.90;;;;;;4212685;28;20549;-62
2023/05/18 07:16:21;;;;;;;8.33;5.60;;;13.70;99.90;;;;;;4211318;28;20036;-82
2023/05/18 07:18:23;;;;;;;7.78;4.95;;;13.70;99.90;;;;;;4211434;28;20036;-80
2023/05/18 07:20:24;;;;;;;7.43;5.65;;;13.70;99.90;;;;;;4211736;28;20105;-81
2023/05/18 07:22:25;;;;;;;9.87;5.27;;;13.70;99.90;;;;;;4213033;28;20077;-79
2023/05/18 07:24:26;;;;;;;6.00;5.07;;;13.70;99.90;;;;;;4211252;28;20092;-78
2023/05/18 07:26:28;;;;;;;6.95;5.07;;;13.70;99.90;;;;;;4212672;28;20077;-73
2023/05/18 07:28:29;;;;;;;10.13;5.47;;;13.70;99.90;;;;;;4210958;28;20365;-64
2023/05/18 07:30:31;;;;;;;12.93;5.40;;;13.60;99.90;;;;;;4211737;28;20040;-79
2023/05/18 07:32:32;;;;;;;12.60;5.67;;;13.60;99.90;;;;;;4211519;28;20110;-80
2023/05/18 07:34:33;;;;;;;8.23;5.70;;;13.60;99.90;;;;;;4211756;28;20397;-79
2023/05/18 07:36:34;;;;;;;8.90;6.23;;;13.70;99.90;;;;;;4211516;28;20036;-71
2023/05/18 07:38:35;;;;;;;10.10;5.97;;;13.70;99.90;;;;;;4211352;28;20040;-80
2023/05/18 07:40:37;;;;;;;8.53;5.87;;;13.70;99.90;;;;;;4212658;28;20024;-73
2023/05/18 07:42:39;;;;;;;21.53;5.70;;;13.70;99.90;;;;;;4211297;28;20593;-72
2023/05/18 07:44:40;;;;;;;9.23;5.43;;;13.70;99.90;;;;;;4212514;28;20036;-81
2023/05/18 07:46:42;;;;;;;9.03;5.43;;;13.70;99.90;;;;;;4210648;28;20429;-80
2023/05/18 07:48:44;;;;;;;9.48;8.20;;;13.70;99.90;;;;;;4211299;28;20483;-77
2023/05/18 07:50:45;;;;;;;8.73;5.70;;;13.70;99.90;;;;;;4210578;28;20093;-80
2023/05/18 07:52:46;;;;;;;7.30;5.65;;;13.80;99.90;;;;;;4211798;28;20036;-80
2023/05/18 07:54:47;;;;;;;14.27;5.78;;;13.90;99.90;;;;;;4211283;28;20537;-75
2023/05/18 07:56:49;;;;;;;14.38;6.45;;;13.90;99.90;;;;;;4212812;28;20039;-83
2023/05/18 07:58:50;;;;;;;12.27;5.45;;;14.00;99.90;;;;;;4211418;28;20025;-81
2023/05/18 08:00:51;;;;;;;10.98;5.82;;;14.10;99.90;;;;;;4211564;28;20446;-74
2023/05/18 08:02:52;;;;;;;11.43;5.40;;;14.10;99.90;;;;;;4210997;28;20093;-75
2023/05/18 08:04:54;;;;;;;24.47;6.10;;;14.20;99.90;;;;;;4212043;28;20036;-80
2023/05/18 08:06:58;;;;;;;15.13;5.93;;;14.30;99.90;;;;;;4212203;28;20054;-80
2023/05/18 08:09:00;;;;;;;18.25;7.22;;;14.40;99.90;;;;;;4211469;28;20054;-79
2023/05/18 08:11:01;;;;;;;23.70;7.60;;;14.40;99.90;;;;;;4220645;28;20556;-79
2023/05/18 08:13:02;;;;;;;17.48;6.35;;;14.50;99.90;;;;;;4221723;28;20036;-77
2023/05/18 08:15:04;;;;;;;8.07;5.53;;;14.50;99.90;;;;;;4211711;28;20085;-79
2023/05/18 08:17:06;;;;;;;9.82;5.40;;;14.60;99.90;;;;;;4209912;28;20044;-80
2023/05/18 08:19:07;;;;;;;11.57;5.35;;;14.60;99.90;;;;;;4211322;28;20101;-61
2023/05/18 08:21:09;;;;;;;9.68;5.88;;;14.60;99.90;;;;;;4210169;28;20085;-60
2023/05/18 08:23:10;;;;;;;13.93;6.97;;;14.60;99.90;;;;;;4210808;28;20181;-80
2023/05/18 08:25:11;;;;;;;23.35;9.10;;;14.70;99.90;;;;;;4210427;28;20089;-79
2023/05/18 08:27:12;;;;;;;18.08;7.65;;;14.80;99.90;;;;;;4211894;28;20032;-79
2023/05/18 08:29:13;;;;;;;15.85;6.35;;;14.80;99.90;;;;;;4209906;28;20020;-76
2023/05/18 08:31:15;;;;;;;22.02;6.70;;;15.00;99.90;;;;;;4212040;28;20434;-77
2023/05/18 08:33:16;;;;;;;9.88;5.28;;;15.00;99.90;;;;;;4210390;28;20025;-61
2023/05/18 08:35:18;;;;;;;9.18;5.00;;;15.10;99.90;;;;;;4211117;28;20054;-63
2023/05/18 08:37:20;;;;;;;6.25;4.07;;;15.10;99.90;;;;;;4210668;28;20082;-78
2023/05/18 08:39:21;;;;;;;10.68;4.03;;;15.20;99.90;;;;;;4210993;28;20125;-81
2023/05/18 08:41:28;;;;;;;10.95;3.80;;;15.20;99.90;;;;;;4210467;28;20096;-65
2023/05/18 08:43:32;;;;;;;20.27;4.32;;;15.40;99.90;;;;;;4210226;28;20036;-61
2023/05/18 08:46:09;;;;;;;6.28;4.00;;;15.50;99.90;;;;;;4211309;28;20463;-77
2023/05/18 08:48:14;;;;;;;11.65;4.50;;;15.70;99.90;;;;;;4178680;28;20483;-58
2023/05/18 08:50:19;;;;;;;12.90;4.88;;;15.80;99.90;;;;;;4209697;28;20031;-74
2023/05/18 08:52:25;;;;;;;7.32;4.75;;;16.00;99.90;;;;;;4210729;28;20073;-69
2023/05/18 08:54:26;;;;;;;10.68;4.60;;;16.10;99.90;;;;;;4210792;28;20589;-71
2023/05/18 08:56:31;;;;;;;9.77;4.10;;;16.20;99.90;;;;;;4210317;28;20434;-74
2023/05/18 08:58:43;;;;;;;7.57;5.35;;;16.30;99.90;;;;;;4210041;28;20081;-74
2023/05/18 09:00:44;;;;;;;7.18;4.07;;;16.30;99.90;;;;;;4209561;28;20116;-74
2023/05/18 09:02:47;;;;;;;7.28;3.78;;;16.40;99.90;;;;;;4211471;28;20077;-74
2023/05/18 09:04:48;;;;;;;4.70;3.50;;;16.50;99.90;;;;;;4216240;28;20513;-72
2023/05/18 09:06:53;;;;;;;5.32;4.18;;;16.70;99.90;;;;;;4228706;28;20031;-73
2023/05/18 09:08:58;;;;;;;7.85;3.33;;;16.80;99.90;;;;;;4226620;28;20039;-71
2023/05/18 09:11:02;;;;;;;5.55;3.67;;;17.00;99.90;;;;;;4228200;28;20097;-74
2023/05/18 09:13:04;;;;;;;11.55;3.42;;;17.10;99.90;;;;;;4211828;28;20086;-73
2023/05/18 09:15:08;;;;;;;7.93;3.38;;;17.10;99.90;;;;;;4210617;28;20074;-74
2023/05/18 09:17:09;;;;;;;8.55;3.13;;;17.20;99.90;;;;;;4209702;28;20032;-74
2023/05/18 09:19:11;;;;;;;6.90;3.58;;;17.30;99.90;;;;;;4209610;28;20514;-73
2023/05/18 09:21:12;;;;;;;7.45;3.92;;;17.40;99.90;;;;;;4210122;28;20062;-74
2023/05/18 09:23:14;;;;;;;8.27;3.13;;;17.60;99.90;;;;;;4210296;28;20040;-74
2023/05/18 09:25:17;;;;;;;7.93;3.60;;;17.90;99.90;;;;;;4209815;28;20054;-70
2023/05/18 09:27:18;;;;;;;7.32;3.22;;;18.10;99.90;;;;;;4210788;28;20036;-81
2023/05/18 09:29:22;;;;;;;9.20;3.22;;;18.30;99.90;;;;;;4208305;28;20024;-77
2023/05/18 09:31:25;;;;;;;3.17;2.47;;;18.40;99.90;;;;;;4210073;28;20032;-75
2023/05/18 09:33:35;;;;;;;4.88;2.78;;;18.40;99.90;;;;;;4209961;28;20434;-75
2023/05/18 09:35:36;;;;;;;10.02;2.92;;;18.50;99.90;;;;;;4209223;28;20054;-66
2023/05/18 09:37:41;;;;;;;3.90;2.60;;;18.70;99.90;;;;;;4193827;28;20033;-79
2023/05/18 09:39:43;;;;;;;10.88;3.40;;;18.80;99.90;;;;;;4193289;28;20105;-78
2023/05/18 09:41:44;;;;;;;3.88;2.80;;;18.90;99.90;;;;;;4194047;28;20182;-79
2023/05/18 09:43:47;;;;;;;4.53;2.78;;;19.10;99.90;;;;;;4193013;28;20447;-72
2023/05/18 09:45:48;;;;;;;4.15;2.40;;;19.20;99.90;;;;;;4206273;28;20036;-71
2023/05/18 09:47:50;;;;;;;6.30;2.90;;;19.20;99.90;;;;;;4209565;28;20788;-76
2023/05/18 09:49:51;;;;;;;3.15;2.58;;;19.30;99.90;;;;;;4211024;28;20040;-61
2023/05/18 09:51:52;;;;;;;4.80;2.30;;;19.30;99.90;;;;;;4209298;28;20093;-72
2023/05/18 09:53:55;;;;;;;6.45;2.53;;;19.30;99.90;;;;;;4210146;28;20105;-76
2023/05/18 09:56:05;;;;;;;4.50;2.40;;;19.40;99.90;;;;;;4209751;28;20031;-61
2023/05/18 09:58:07;;;;;;;9.20;2.60;;;19.40;99.90;;;;;;4210847;28;20040;-77
2023/05/18 10:00:10;;;;;;;11.88;2.85;;;19.40;99.90;;;;;;4218394;28;20405;-61
2023/05/18 10:02:12;;;;;;;2.50;2.25;;;19.50;99.90;;;;;;4227208;28;20056;-68
2023/05/18 10:04:13;;;;;;;7.97;2.53;;;19.60;99.90;;;;;;4210060;28;20048;-62
2023/05/18 10:06:18;;;;;;;4.20;2.50;;;19.60;99.90;;;;;;4210343;28;20040;-82
2023/05/18 10:08:20;;;;;;;6.38;2.90;;;19.60;99.90;;;;;;4208364;28;20097;-76
2023/05/18 10:10:24;;;;;;;5.00;2.25;;;19.60;99.90;;;;;;4210451;28;20484;-62
2023/05/18 10:12:25;;;;;;;6.65;2.83;;;19.60;99.90;;;;;;4213150;28;20099;-63
2023/05/18 10:14:29;;;;;;;8.93;2.72;;;19.60;99.90;;;;;;4212285;28;20480;-71
2023/05/18 10:16:31;;;;;;;5.68;2.45;;;19.70;99.90;;;;;;4213624;28;20096;-81
2023/05/18 10:18:36;;;;;;;6.22;2.45;;;19.70;99.90;;;;;;4212533;28;20097;-79
2023/05/18 10:20:37;;;;;;;5.43;2.05;;;19.40;99.90;;;;;;4213968;28;20032;-86
2023/05/18 10:22:39;;;;;;;3.67;2.03;;;19.40;99.90;;;;;;4212929;28;20036;-86
2023/05/18 10:24:44;;;;;;;49.72;7.32;;;19.10;99.90;;;;;;4212985;28;20124;-71
2023/05/18 10:26:47;;;;;;;40.20;8.43;;;18.80;99.90;;;;;;4212488;28;20356;-79
2023/05/18 10:28:51;;;;;;;5.72;2.42;;;18.90;99.90;;;;;;4213102;28;20043;-82
2023/05/18 10:30:54;;;;;;;5.15;2.85;;;19.10;99.90;;;;;;4212207;28;20036;-77
2023/05/18 10:32:56;;;;;;;8.35;2.35;;;19.20;99.90;;;;;;4216781;28;20028;-82
2023/05/18 10:34:59;;;;;;;12.88;3.15;;;19.10;99.90;;;;;;4212089;28;20540;-76
2023/05/18 10:37:04;;;;;;;9.13;2.50;;;19.00;99.90;;;;;;4213356;28;20085;-78
2023/05/18 10:39:06;;;;;;;13.35;3.22;;;19.00;99.90;;;;;;4210947;28;20117;-81
2023/05/18 10:41:10;;;;;;;5.55;1.95;;;19.10;99.90;;;;;;4212849;28;20085;-61
2023/05/18 10:43:12;;;;;;;4.43;2.33;;;19.00;99.90;;;;;;4212059;28;20032;-61
2023/05/18 10:45:14;;;;;;;7.60;2.33;;;19.10;99.90;;;;;;4212211;28;20465;-79